Time;durP1;ratioP1;P1;durP2;ratioP2;P2;SDS_P1;SDS_P2;PMS_P1;PMS_P2;Temp;Humidity;BMP_temperature;BMP_pressure;BME280_temperature;BME280_humidity;BME280_pressure;Samples;Min_cycle;Max_cycle;Signal;HPM_P1;HPM_P2
2023/03/01 00:01:12;;;;;;;5.32;2.97;;;;;;;4.07;50.93;101289.03;5032943;28;20141;-79
2023/03/01 00:03:39;;;;;;;4.10;2.67;;;;;;;4.08;51.49;101292.50;5032951;28;20470;-79
2023/03/01 00:06:06;;;;;;;3.85;2.67;;;;;;;4.07;51.38;101290.78;5032372;28;20061;-79
2023/03/01 00:08:33;;;;;;;6.28;2.83;;;;;;;4.07;51.44;101286.41;5032352;28;20060;-79
2023/03/01 00:11:18;;;;;;;3.20;2.28;;;;;;;4.03;50.97;101287.31;5032600;28;20045;-80
2023/03/01 00:13:46;;;;;;;4.95;2.72;;;;;;;4.04;51.46;101289.91;5032492;28;20045;-79
2023/03/01 00:16:17;;;;;;;3.97;2.40;;;;;;;4.01;51.13;101296.88;5032332;28;20132;-79
2023/03/01 00:18:43;;;;;;;5.35;2.45;;;;;;;4.00;51.42;101293.41;5014363;28;20095;-79
2023/03/01 00:21:10;;;;;;;4.65;3.10;;;;;;;4.00;51.49;101292.56;5032589;28;20049;-80
2023/03/01 00:23:38;;;;;;;4.20;2.95;;;;;;;3.98;51.32;101286.47;5031294;28;20049;-80
2023/03/01 00:26:10;;;;;;;5.63;2.75;;;;;;;3.95;51.24;101296.88;5032104;28;20053;-80
2023/03/01 00:28:37;;;;;;;4.80;2.80;;;;;;;3.97;51.52;101296.03;5032265;28;20053;-79
2023/03/01 00:31:16;;;;;;;4.43;2.78;;;;;;;3.93;50.83;101289.09;5032201;28;20037;-80
2023/03/01 00:33:43;;;;;;;4.28;2.72;;;;;;;3.94;51.35;101297.78;5014559;28;20050;-79
2023/03/01 00:36:11;;;;;;;7.10;2.88;;;;;;;3.89;51.22;101290.84;5031950;28;20046;-80
2023/03/01 00:38:40;;;;;;;3.65;2.47;;;;;;;3.86;51.31;101288.28;5030508;28;20045;-80
2023/03/01 00:41:09;;;;;;;4.20;2.70;;;;;;;3.83;51.66;101288.28;5031961;28;20492;-80
2023/03/01 00:43:38;;;;;;;5.78;3.13;;;;;;;3.81;51.25;101292.59;5032289;28;20045;-79
2023/03/01 00:46:08;;;;;;;4.15;2.80;;;;;;;3.77;51.45;101296.97;5031691;28;20715;-79
2023/03/01 00:48:35;;;;;;;6.80;3.03;;;;;;;3.76;51.97;101300.47;5031598;28;20076;-79
2023/03/01 00:51:22;;;;;;;3.60;2.88;;;;;;;3.72;50.92;101300.47;5031762;28;20260;-79
2023/03/01 00:53:52;;;;;;;5.38;3.28;;;;;;;3.72;51.61;101296.13;5029971;28;20474;-80
2023/03/01 00:56:19;;;;;;;8.10;3.58;;;;;;;3.70;51.54;101300.47;5031406;28;20045;-80
2023/03/01 00:58:46;;;;;;;6.10;3.75;;;;;;;3.68;51.88;101299.63;5031449;28;20047;-80
2023/03/01 01:01:19;;;;;;;5.07;3.35;;;;;;;3.65;51.54;101294.41;5031690;28;20475;-80
2023/03/01 01:03:48;;;;;;;8.75;3.50;;;;;;;3.63;51.97;101288.34;5031685;28;20041;-79
2023/03/01 01:06:26;;;;;;;6.75;3.38;;;;;;;3.62;51.82;101294.41;5031409;28;20048;-81
2023/03/01 01:08:55;;;;;;;6.00;3.70;;;;;;;3.61;52.20;101287.47;5030173;28;20049;-81
2023/03/01 01:11:23;;;;;;;5.72;4.05;;;;;;;3.59;51.94;101292.69;5013835;28;20041;-80
2023/03/01 01:13:50;;;;;;;5.15;3.28;;;;;;;3.59;52.09;101286.63;5031583;28;20120;-80
2023/03/01 01:16:18;;;;;;;5.38;3.47;;;;;;;3.57;52.14;101285.75;5030883;28;20045;-80
2023/03/01 01:18:45;;;;;;;5.70;3.78;;;;;;;3.56;51.84;101282.31;5013652;28;20079;-80
2023/03/01 01:21:15;;;;;;;4.78;3.25;;;;;;;3.54;52.13;101280.56;5013851;28;20136;-80
2023/03/01 01:23:43;;;;;;;4.95;3.40;;;;;;;3.51;51.83;101279.69;5030310;28;20045;-80
2023/03/01 01:26:12;;;;;;;7.03;3.55;;;;;;;3.49;52.22;101273.66;5030795;28;20045;-80
2023/03/01 01:28:39;;;;;;;6.43;4.00;;;;;;;3.49;52.26;101271.03;5030735;28;20398;-79
2023/03/01 01:31:06;;;;;;;5.45;3.40;;;;;;;3.47;52.15;101272.75;5031214;28;20079;-80
2023/03/01 01:33:34;;;;;;;5.80;3.53;;;;;;;3.45;52.30;101266.72;5031248;28;20049;-80
2023/03/01 01:36:00;;;;;;;5.38;4.10;;;;;;;3.45;52.49;101268.44;5030814;28;20049;-79
2023/03/01 01:38:27;;;;;;;6.53;4.30;;;;;;;3.42;52.22;101274.53;5013164;28;20049;-80
2023/03/01 01:40:53;;;;;;;9.13;4.32;;;;;;;3.39;52.12;101257.19;5030963;28;20477;-80
2023/03/01 01:43:23;;;;;;;4.63;3.63;;;;;;;3.38;52.15;101257.19;5030955;28;20128;-80
2023/03/01 01:45:54;;;;;;;6.13;3.67;;;;;;;3.37;52.48;101253.69;5030762;28;20702;-79
2023/03/01 01:48:24;;;;;;;5.78;3.88;;;;;;;3.36;52.33;101253.69;5013154;28;20107;-79
2023/03/01 01:51:00;;;;;;;4.90;3.63;;;;;;;3.34;52.05;101250.25;5030800;28;20042;-79
2023/03/01 01:53:28;;;;;;;6.72;4.07;;;;;;;3.35;52.54;101249.38;5029821;28;20053;-79
2023/03/01 01:55:58;;;;;;;4.60;3.63;;;;;;;3.32;52.11;101247.63;5030186;28;20432;-80
2023/03/01 01:58:28;;;;;;;6.32;3.90;;;;;;;3.30;52.41;101249.41;5030734;28;20486;-80
2023/03/01 02:00:54;;;;;;;6.60;3.72;;;;;;;3.29;52.18;101252.00;5030876;28;20478;-80
2023/03/01 02:03:32;;;;;;;5.72;3.78;;;;;;;3.25;52.42;101246.78;5030818;28;20038;-79
2023/03/01 02:06:19;;;;;;;7.55;3.42;;;;;;;3.22;52.06;101252.00;5012952;28;20498;-80
2023/03/01 02:08:48;;;;;;;7.00;4.18;;;;;;;3.23;52.62;101243.34;5030486;28;20052;-80
2023/03/01 02:11:15;;;;;;;5.65;3.90;;;;;;;3.21;52.45;101242.47;5029510;28;20057;-79
2023/03/01 02:13:42;;;;;;;6.65;4.13;;;;;;;3.20;52.60;101239.84;5030805;28;20099;-79
2023/03/01 02:16:13;;;;;;;9.48;4.38;;;;;;;3.17;52.92;101245.09;5030350;28;20064;-80
2023/03/01 02:18:41;;;;;;;5.63;4.28;;;;;;;3.15;52.89;101236.41;5030400;28;20046;-80
2023/03/01 02:21:20;;;;;;;6.15;4.32;;;;;;;3.12;52.34;101230.34;5030879;28;20045;-80
2023/03/01 02:23:47;;;;;;;6.40;4.18;;;;;;;3.11;53.03;101226.00;5030760;28;20045;-80
2023/03/01 02:26:36;;;;;;;5.85;4.13;;;;;;;3.07;52.58;101224.28;5030193;28;20051;-80
2023/03/01 02:29:05;;;;;;;6.75;4.30;;;;;;;3.08;53.21;101228.63;5030537;28;20047;-79
2023/03/01 02:31:41;;;;;;;6.88;4.60;;;;;;;3.06;53.23;101224.31;5030564;28;20445;-79
2023/03/01 02:34:11;;;;;;;6.75;3.90;;;;;;;3.04;52.78;101220.81;5030233;28;20160;-80
2023/03/01 02:36:47;;;;;;;7.07;4.22;;;;;;;3.02;52.62;101222.56;5029610;28;20059;-80
2023/03/01 02:39:22;;;;;;;7.13;4.60;;;;;;;2.98;52.89;101217.38;5029123;28;20063;-80
2023/03/01 02:41:53;;;;;;;8.27;4.22;;;;;;;2.97;53.12;101219.97;5030305;28;20942;-80
2023/03/01 02:44:21;;;;;;;7.18;4.10;;;;;;;2.97;52.92;101220.84;5030468;28;20056;-80
2023/03/01 02:46:50;;;;;;;10.07;4.50;;;;;;;2.95;53.30;101226.94;5029530;28;20041;-80
2023/03/01 02:49:30;;;;;;;7.07;4.60;;;;;;;2.91;53.36;101226.03;5012832;28;20056;-80
2023/03/01 02:52:13;;;;;;;6.65;4.43;;;;;;;2.89;52.68;101220.00;5030315;28;20057;-80
2023/03/01 02:54:51;;;;;;;8.25;4.85;;;;;;;2.88;53.05;101220.88;5030321;28;20037;-80
2023/03/01 02:57:19;;;;;;;8.88;4.82;;;;;;;2.87;53.46;101221.72;5029700;28;20370;-80
2023/03/01 02:59:45;;;;;;;8.15;4.95;;;;;;;2.84;53.15;101216.53;5030251;28;20055;-80
2023/03/01 03:02:36;;;;;;;7.70;4.65;;;;;;;2.76;53.28;101211.31;5030259;28;20049;-80
2023/03/01 03:05:12;;;;;;;8.05;5.07;;;;;;;2.76;53.47;101216.53;5029907;28;20065;-80
2023/03/01 03:07:41;;;;;;;8.68;5.93;;;;;;;2.74;53.41;101205.25;5029453;28;20053;-80
2023/03/01 03:10:12;;;;;;;7.20;4.93;;;;;;;2.70;53.24;101209.59;5030150;28;20053;-81
2023/03/01 03:12:39;;;;;;;6.90;4.78;;;;;;;2.68;53.58;101213.94;5030017;28;20048;-79
2023/03/01 03:15:08;;;;;;;8.77;4.90;;;;;;;2.63;53.87;101215.69;5029654;28;20053;-79
2023/03/01 03:17:40;;;;;;;7.15;4.78;;;;;;;2.59;53.74;101220.00;5033368;28;20383;-79
2023/03/01 03:20:11;;;;;;;7.55;4.70;;;;;;;2.58;53.29;101212.22;5032678;28;20037;-79
2023/03/01 03:22:39;;;;;;;8.85;4.82;;;;;;;2.54;53.40;101213.09;5033617;28;20045;-79
2023/03/01 03:25:10;;;;;;;8.18;4.47;;;;;;;2.51;52.95;101210.47;5033147;28;20045;-81
2023/03/01 03:27:42;;;;;;;7.97;4.10;;;;;;;2.42;53.12;101212.19;5015338;28;20049;-81
2023/03/01 03:30:12;;;;;;;6.97;4.60;;;;;;;2.39;53.15;101217.38;5033674;28;20052;-80
2023/03/01 03:32:40;;;;;;;7.15;4.50;;;;;;;2.33;53.96;101215.66;5015769;28;20041;-80
2023/03/01 03:35:09;;;;;;;6.57;4.43;;;;;;;2.30;53.75;101209.59;5033031;28;20099;-80
2023/03/01 03:40:27;;;;;;;10.82;4.75;;;;;;;2.25;53.66;101213.91;5033648;28;20440;-79
2023/03/01 03:42:54;;;;;;;6.47;4.38;;;;;;;2.22;53.86;101207.00;5033359;28;20056;-79
2023/03/01 03:45:21;;;;;;;6.45;4.60;;;;;;;2.21;53.97;101213.91;5032921;28;20080;-80
2023/03/01 03:47:48;;;;;;;11.57;5.07;;;;;;;2.22;54.42;101207.84;5032695;28;20051;-80
2023/03/01 03:50:17;;;;;;;7.20;4.68;;;;;;;2.22;54.16;101207.84;5031802;28;20144;-79
2023/03/01 03:52:44;;;;;;;8.10;4.72;;;;;;;2.24;54.19;101202.66;5015423;28;20255;-79
2023/03/01 03:55:12;;;;;;;6.45;4.00;;;;;;;2.25;54.17;101203.53;5015216;28;20084;-80
2023/03/01 03:57:40;;;;;;;6.55;4.43;;;;;;;2.26;54.17;101195.75;5032580;28;20056;-80
2023/03/01 04:00:12;;;;;;;7.43;4.40;;;;;;;2.26;54.65;101189.66;5033113;28;20378;-80
2023/03/01 04:02:42;;;;;;;7.45;4.85;;;;;;;2.27;53.99;101183.59;5032977;28;20045;-80
2023/03/01 04:05:11;;;;;;;8.05;4.70;;;;;;;2.28;54.55;101177.56;5014696;28;20115;-80
2023/03/01 04:07:38;;;;;;;5.93;4.05;;;;;;;2.28;53.96;101172.38;5032317;28;20052;-80
2023/03/01 04:10:08;;;;;;;7.65;4.63;;;;;;;2.27;53.93;101165.41;5032728;28;20075;-80
2023/03/01 04:12:34;;;;;;;8.13;4.93;;;;;;;2.28;54.17;101164.56;5032654;28;20049;-80
2023/03/01 04:15:12;;;;;;;7.07;4.95;;;;;;;2.28;54.38;101162.81;5031045;28;20085;-80
2023/03/01 04:17:41;;;;;;;7.35;4.75;;;;;;;2.27;54.54;101161.09;5030893;28;20556;-80
2023/03/01 04:20:24;;;;;;;9.45;5.30;;;;;;;2.27;53.90;101163.69;5031416;28;20084;-80
2023/03/01 04:22:58;;;;;;;;;;;;;;;2.29;53.13;101161.09;5033053;28;20482;-80
2023/03/01 04:25:25;;;;;;;5.95;3.90;;;;;;;2.28;53.83;101164.56;5031984;28;19917;-80
2023/03/01 04:27:52;;;;;;;8.35;5.35;;;;;;;2.23;54.25;101164.53;5031916;28;20482;-81
2023/03/01 04:30:18;;;;;;;6.25;4.88;;;;;;;2.19;54.03;101168.00;5032650;28;20053;-80
2023/03/01 04:32:45;;;;;;;7.07;4.90;;;;;;;2.16;54.07;101155.00;5032294;28;20075;-80
2023/03/01 04:35:11;;;;;;;9.35;4.75;;;;;;;2.14;54.89;101156.75;5032186;28;20056;-80
2023/03/01 04:37:38;;;;;;;9.60;4.97;;;;;;;2.14;54.55;101164.53;5032083;28;20069;-80
2023/03/01 04:40:12;;;;;;;8.95;4.95;;;;;;;2.14;54.67;101159.34;5032161;28;20132;-80
2023/03/01 04:42:39;;;;;;;8.95;5.28;;;;;;;2.12;54.67;101164.53;5014514;28;20095;-80
2023/03/01 04:45:12;;;;;;;8.70;5.05;;;;;;;2.13;54.23;101165.41;5031755;28;20065;-80
2023/03/01 04:47:41;;;;;;;8.35;5.47;;;;;;;2.13;54.77;101155.03;5031781;28;20052;-80
2023/03/01 04:50:08;;;;;;;10.00;5.70;;;;;;;2.13;54.54;101153.28;5031805;28;20056;-80
2023/03/01 04:52:35;;;;;;;8.75;5.70;;;;;;;2.13;54.62;101153.28;5031697;28;20053;-80
2023/03/01 04:55:03;;;;;;;9.52;5.10;;;;;;;2.13;54.18;101144.63;5031290;28;20050;-80
2023/03/01 04:57:30;;;;;;;8.38;5.72;;;;;;;2.13;54.59;101145.50;5014037;28;20041;-80
2023/03/01 04:59:57;;;;;;;8.20;5.53;;;;;;;2.13;54.38;101142.03;5032166;28;20052;-80
2023/03/01 05:02:23;;;;;;;7.85;5.70;;;;;;;2.14;54.56;101138.56;5031814;28;20046;-80
2023/03/01 05:04:50;;;;;;;9.50;6.57;;;;;;;2.12;54.42;101146.34;5031237;28;20121;-80
2023/03/01 05:07:20;;;;;;;9.07;5.65;;;;;;;2.11;54.99;101136.84;5031082;28;20049;-80
2023/03/01 05:09:46;;;;;;;7.78;5.32;;;;;;;2.10;54.63;101140.31;5031406;28;20073;-80
2023/03/01 05:12:14;;;;;;;8.00;5.85;;;;;;;2.08;54.78;101139.44;5031749;28;20045;-80
2023/03/01 05:14:41;;;;;;;8.65;6.05;;;;;;;2.07;54.75;101141.19;5031398;28;20046;-80
2023/03/01 05:17:08;;;;;;;8.38;5.70;;;;;;;2.08;55.11;101144.63;5030763;28;20047;-80
2023/03/01 05:19:34;;;;;;;12.60;5.93;;;;;;;2.07;54.96;101142.91;5030125;28;20046;-79
2023/03/01 05:22:03;;;;;;;7.97;5.55;;;;;;;2.07;54.80;101143.78;5031207;28;20099;-80
2023/03/01 05:24:33;;;;;;;9.93;5.57;;;;;;;2.07;54.79;101142.91;5031239;28;20505;-80
2023/03/01 05:27:01;;;;;;;9.88;5.75;;;;;;;2.06;54.84;101141.16;5030662;28;20080;-80
2023/03/01 05:29:30;;;;;;;8.63;5.30;;;;;;;2.05;54.58;101140.28;5031194;28;20077;-80
2023/03/01 05:32:00;;;;;;;9.93;5.72;;;;;;;2.04;54.87;101140.28;5031013;28;20041;-80
2023/03/01 08:31:30;;;;;;;12.98;6.45;;;;;;;2.88;57.38;101129.84;5129537;22;20398;-80
2023/03/01 08:33:59;;;;;;;8.98;6.32;;;;;;;2.96;56.95;101129.81;5092337;28;20404;-79
2023/03/01 08:36:28;;;;;;;11.63;6.90;;;;;;;3.03;57.22;101128.03;5091749;28;20052;-79
2023/03/01 08:38:56;;;;;;;11.00;7.03;;;;;;;3.08;57.10;101119.34;5112214;28;20120;-79
2023/03/01 08:41:22;;;;;;;9.85;6.70;;;;;;;3.14;57.18;101126.25;5094282;28;20062;-80
2023/03/01 08:43:49;;;;;;;11.55;6.88;;;;;;;3.21;57.39;101122.75;5094347;28;20148;-80
2023/03/01 08:46:16;;;;;;;10.18;6.93;;;;;;;3.29;57.10;101121.88;5137759;22;20147;-79
2023/03/01 08:48:43;;;;;;;9.85;6.78;;;;;;;3.36;57.08;101115.75;5091461;28;20051;-80
2023/03/01 08:51:15;;;;;;;11.00;7.22;;;;;;;3.41;56.34;101111.41;5091663;28;20666;-79
2023/03/01 08:53:42;;;;;;;;;;;;;;;3.49;55.70;101119.16;5086158;28;20400;-80
2023/03/01 08:56:09;;;;;;;12.07;7.25;;;;;;;3.59;57.08;101120.00;5088469;28;19928;-79
2023/03/01 08:58:37;;;;;;;11.50;7.32;;;;;;;3.62;56.88;101115.63;5091731;28;20052;-80
2023/03/01 09:01:09;;;;;;;12.00;7.25;;;;;;;3.64;56.27;101115.59;5091173;28;20397;-80
2023/03/01 09:03:36;;;;;;;9.70;7.38;;;;;;;3.71;56.73;101119.03;5091467;28;20141;-79
2023/03/01 09:06:04;;;;;;;9.73;6.90;;;;;;;3.73;56.83;101110.34;5091701;28;20127;-80
2023/03/01 09:08:34;;;;;;;10.45;6.93;;;;;;;3.76;56.28;101112.94;5091181;28;20386;-80
2023/03/01 09:11:03;;;;;;;10.55;7.18;;;;;;;3.82;56.61;101113.75;5090436;28;20058;-80
2023/03/01 09:13:31;;;;;;;11.32;6.30;;;;;;;3.86;56.73;101112.88;5090533;28;20134;-80
2023/03/01 09:16:02;;;;;;;9.52;7.13;;;;;;;3.90;56.32;101105.00;5091138;28;20510;-79
2023/03/01 09:18:29;;;;;;;12.35;6.93;;;;;;;3.98;56.63;101118.00;5071437;28;20064;-79
2023/03/01 09:21:12;;;;;;;9.52;6.55;;;;;;;4.01;56.24;101109.28;5071407;28;20079;-79
2023/03/01 09:23:42;;;;;;;11.00;6.75;;;;;;;4.09;56.73;101110.09;5096282;28;20100;-80
2023/03/01 09:26:11;;;;;;;11.02;7.38;;;;;;;4.14;56.38;101100.47;5099294;28;20055;-79
2023/03/01 09:28:44;;;;;;;10.98;7.10;;;;;;;4.23;56.66;101106.50;5100188;28;20043;-77
2023/03/01 09:31:14;;;;;;;11.40;7.28;;;;;;;4.29;56.81;101106.44;5090165;28;20109;-80
2023/03/01 09:33:42;;;;;;;10.32;6.72;;;;;;;4.36;56.73;101095.06;5091254;28;20087;-80
2023/03/01 09:36:12;;;;;;;10.55;7.05;;;;;;;4.43;56.32;101090.66;5090866;28;20542;-80
2023/03/01 09:38:39;;;;;;;11.65;7.05;;;;;;;4.52;56.83;101092.34;5091183;28;20083;-80
2023/03/01 09:41:36;;;;;;;11.30;6.18;;;;;;;4.59;55.40;101093.97;5090682;28;20563;-80
2023/03/01 09:44:13;;;;;;;13.00;6.75;;;;;;;4.70;55.83;101086.03;5072709;28;20040;-79
2023/03/01 09:46:45;;;;;;;11.48;6.28;;;;;;;4.78;56.03;101080.72;5090630;28;20135;-79
2023/03/01 09:49:16;;;;;;;12.00;6.53;;;;;;;4.88;55.95;101086.72;5090746;28;20429;-80
2023/03/01 09:52:04;;;;;;;9.07;5.40;;;;;;;4.94;55.00;101089.25;5090729;28;20127;-79
2023/03/01 09:54:31;;;;;;;9.23;5.63;;;;;;;5.05;56.29;101089.97;5086194;28;20140;-79
2023/03/01 09:57:25;;;;;;;8.10;5.97;;;;;;;5.11;54.75;101080.34;5090280;28;20084;-79
2023/03/01 09:59:58;;;;;;;9.77;5.85;;;;;;;5.20;54.95;101075.88;5090224;28;20048;-80
2023/03/01 10:03:11;;;;;;;8.98;5.78;;;;;;;5.29;54.46;101077.50;5089303;28;20052;-79
2023/03/01 10:05:52;;;;;;;9.32;5.68;;;;;;;5.40;54.61;101089.53;5050721;28;20047;-80
2023/03/01 10:08:43;;;;;;;7.72;5.65;;;;;;;5.48;54.59;101090.28;5100723;28;20047;-79
2023/03/01 10:11:44;;;;;;;9.48;6.00;;;;;;;5.57;54.45;101087.53;5109804;28;20138;-80
2023/03/01 10:14:13;;;;;;;14.48;5.80;;;;;;;5.70;55.98;101089.97;5103163;28;20047;-79
2023/03/01 10:16:50;;;;;;;9.07;6.10;;;;;;;5.79;55.31;101084.59;5097184;28;20063;-80
2023/03/01 10:19:29;;;;;;;10.70;6.30;;;;;;;5.87;54.58;101082.75;5090347;28;20048;-79
2023/03/01 10:22:00;;;;;;;9.07;6.15;;;;;;;6.02;55.70;101080.75;5090371;28;20383;-79
2023/03/01 10:24:31;;;;;;;8.23;5.75;;;;;;;6.13;55.13;101072.75;5090985;28;20087;-79
2023/03/01 10:27:04;;;;;;;8.48;5.55;;;;;;;6.22;54.42;101061.28;5094973;28;20135;-80
2023/03/01 10:29:39;;;;;;;8.63;5.82;;;;;;;6.34;53.98;101054.97;5094781;28;20109;-79
2023/03/01 10:32:06;;;;;;;10.30;5.38;;;;;;;6.47;55.26;101060.84;5094930;28;20062;-79
2023/03/01 10:34:35;;;;;;;7.55;4.93;;;;;;;6.59;54.79;101064.97;5094554;28;20048;-80
2023/03/01 10:37:09;;;;;;;10.63;5.53;;;;;;;6.68;53.13;101049.09;5094491;28;20063;-79
2023/03/01 10:39:36;;;;;;;7.18;4.75;;;;;;;6.84;54.84;101054.03;5094250;28;20526;-79
2023/03/01 10:42:13;;;;;;;8.50;4.80;;;;;;;6.97;54.43;101052.00;5094114;28;20102;-79
2023/03/01 10:44:48;;;;;;;7.72;5.00;;;;;;;7.09;52.38;101061.38;5094251;28;20105;-79
2023/03/01 10:47:20;;;;;;;8.10;4.35;;;;;;;7.23;52.93;101055.84;5094266;28;20447;-79
2023/03/01 10:49:56;;;;;;;6.15;4.03;;;;;;;7.33;52.55;101052.09;5094005;28;20127;-79
2023/03/01 10:52:29;;;;;;;5.53;4.00;;;;;;;7.46;52.44;101050.09;5094011;28;20052;-79
2023/03/01 10:55:00;;;;;;;8.07;5.07;;;;;;;7.58;52.41;101056.78;5094664;28;20550;-80
2023/03/01 10:57:37;;;;;;;9.30;4.75;;;;;;;7.66;51.29;101049.59;5094163;28;20052;-79
2023/03/01 11:00:22;;;;;;;6.60;4.68;;;;;;;7.74;50.73;101054.66;5094218;28;20048;-79
2023/03/01 11:03:03;;;;;;;9.40;4.97;;;;;;;7.82;50.56;101060.56;5093802;28;20479;-79
2023/03/01 11:05:33;;;;;;;6.25;4.35;;;;;;;7.95;52.46;101060.28;5093911;28;20044;-79
2023/03/01 11:08:02;;;;;;;6.90;4.88;;;;;;;8.03;51.69;101060.06;5092416;28;20109;-79
2023/03/01 11:10:32;;;;;;;8.98;4.50;;;;;;;8.09;51.56;101062.56;5093818;28;20048;-79
2023/03/01 11:13:12;;;;;;;6.13;4.50;;;;;;;8.15;49.32;101065.00;5093777;28;20050;-79
2023/03/01 11:15:39;;;;;;;7.40;4.53;;;;;;;8.26;51.55;101064.72;5092389;28;20488;-79
2023/03/01 11:18:21;;;;;;;6.78;4.72;;;;;;;8.30;48.68;101060.28;5092575;28;20138;-79
2023/03/01 11:21:04;;;;;;;6.45;4.25;;;;;;;8.41;50.64;101054.75;5074007;28;20056;-79
2023/03/01 11:23:32;;;;;;;7.03;4.50;;;;;;;8.51;50.64;101055.34;5071742;28;20056;-79
2023/03/01 11:26:05;;;;;;;7.53;4.50;;;;;;;8.58;50.06;101054.31;5073257;28;20048;-79
2023/03/01 11:28:34;;;;;;;6.13;4.03;;;;;;;8.67;50.88;101059.28;5073211;28;20076;-79
2023/03/01 11:31:16;;;;;;;5.55;4.10;;;;;;;8.79;49.88;101062.50;5073028;28;20410;-80
2023/03/01 11:33:55;;;;;;;5.78;3.72;;;;;;;8.92;49.15;101053.34;5071854;28;20052;-80
2023/03/01 11:36:43;;;;;;;8.85;4.47;;;;;;;9.08;49.24;101047.66;5072369;28;20044;-79
2023/03/01 11:39:37;;;;;;;5.57;4.07;;;;;;;9.29;49.47;101040.88;5082209;28;20492;-79
2023/03/01 11:42:41;;;;;;;7.00;4.50;;;;;;;9.56;49.37;101027.78;5090400;28;20097;-80
2023/03/01 11:45:11;;;;;;;5.50;4.30;;;;;;;9.93;51.48;101032.72;5100827;28;20052;-79
2023/03/01 11:47:55;;;;;;;7.13;4.70;;;;;;;10.29;50.23;101025.31;5092855;28;20044;-79
2023/03/01 11:50:48;;;;;;;6.18;4.32;;;;;;;10.80;50.33;101022.66;5092885;28;20591;-80
2023/03/01 11:53:31;;;;;;;6.10;4.85;;;;;;;11.50;50.84;101019.09;5093150;28;20052;-80
2023/03/01 11:56:09;;;;;;;;;;;;;;;12.20;52.98;100999.53;5093129;28;20135;-80
2023/03/01 11:59:13;;;;;;;6.32;4.35;;;;;;;13.16;52.79;101000.44;5093092;28;19920;-77
2023/03/01 12:01:54;;;;;;;6.13;4.50;;;;;;;13.90;50.06;101005.72;5093012;28;20077;-77
2023/03/01 12:04:30;;;;;;;4.93;3.55;;;;;;;14.50;49.67;101000.88;5092941;28;20051;-77
2023/03/01 12:07:01;;;;;;;3.83;3.45;;;;;;;15.07;48.48;100998.75;5091346;28;20299;-77
2023/03/01 12:09:45;;;;;;;6.78;3.53;;;;;;;15.58;46.00;100984.34;5091400;28;20094;-77
2023/03/01 12:12:50;;;;;;;6.55;3.60;;;;;;;16.14;45.48;100983.75;5093892;28;20055;-76
2023/03/01 12:15:28;;;;;;;8.20;3.70;;;;;;;16.66;43.96;100987.66;5104065;28;20412;-77
2023/03/01 12:18:16;;;;;;;4.72;3.47;;;;;;;17.04;42.81;100982.63;5099832;28;20132;-77
2023/03/01 12:21:18;;;;;;;4.43;3.47;;;;;;;17.40;43.25;100973.22;5092844;28;20081;-78
2023/03/01 12:24:23;;;;;;;4.03;3.30;;;;;;;17.80;43.10;100968.81;5092531;28;20508;-78
2023/03/01 12:26:53;;;;;;;5.25;3.00;;;;;;;18.19;42.78;100969.72;5091939;28;20054;-77
2023/03/01 12:29:34;;;;;;;3.55;2.67;;;;;;;18.41;40.18;100965.53;5092494;28;20131;-77
2023/03/01 12:32:06;;;;;;;4.15;3.22;;;;;;;18.69;41.55;100952.88;5092478;28;20046;-77
2023/03/01 12:34:52;;;;;;;4.78;3.63;;;;;;;18.87;40.98;100953.38;5092610;28;20056;-77
2023/03/01 12:37:29;;;;;;;3.78;3.00;;;;;;;19.00;39.58;100950.63;5091845;28;20435;-78
2023/03/01 12:39:58;;;;;;;3.92;3.25;;;;;;;19.14;41.25;100946.16;5092376;28;20535;-78
2023/03/01 12:42:31;;;;;;;3.55;2.80;;;;;;;19.21;41.00;100943.88;5092231;28;20052;-77
2023/03/01 12:45:25;;;;;;;4.32;3.33;;;;;;;19.24;38.14;100949.81;5090970;28;20055;-77
2023/03/01 12:48:12;;;;;;;4.20;2.90;;;;;;;19.36;40.80;100949.88;5091214;28;20056;-78
2023/03/01 12:50:41;;;;;;;3.75;3.13;;;;;;;19.50;40.61;100946.13;5091955;28;20044;-78
2023/03/01 12:53:31;;;;;;;3.30;2.72;;;;;;;19.60;37.93;100946.28;5092239;28;20519;-77
2023/03/01 12:56:02;;;;;;;4.38;2.90;;;;;;;19.77;38.31;100936.97;5091844;28;20147;-78
2023/03/01 12:59:06;;;;;;;3.55;2.78;;;;;;;19.85;37.17;100933.72;5091667;28;20139;-78
2023/03/01 13:01:48;;;;;;;6.38;3.22;;;;;;;19.96;36.79;100930.22;5092098;28;20069;-78
2023/03/01 13:04:39;;;;;;;4.28;3.03;;;;;;;20.11;39.34;100915.66;5092042;28;20048;-78
2023/03/01 13:07:24;;;;;;;3.67;2.80;;;;;;;20.22;39.31;100905.97;5091177;28;20055;-78
2023/03/01 13:10:14;;;;;;;4.20;3.35;;;;;;;20.27;36.63;100907.31;5091996;28;20066;-78
2023/03/01 13:12:47;;;;;;;4.20;3.30;;;;;;;20.38;36.18;100909.13;5091663;28;20130;-78
2023/03/01 13:15:27;;;;;;;3.30;2.63;;;;;;;20.47;36.32;100904.81;5091386;28;20090;-78
2023/03/01 13:18:15;;;;;;;5.10;3.50;;;;;;;20.55;36.16;100899.72;5091273;28;20163;-78
2023/03/01 13:20:42;;;;;;;4.35;3.20;;;;;;;20.73;37.84;100898.31;5091723;28;20052;-78
2023/03/01 13:23:21;;;;;;;3.83;3.05;;;;;;;20.77;35.86;100900.63;5091415;28;20056;-78
2023/03/01 13:25:59;;;;;;;5.63;3.10;;;;;;;20.83;34.67;100892.09;5091148;28;20070;-78
2023/03/01 13:28:44;;;;;;;3.72;2.70;;;;;;;20.79;34.62;100895.16;5091030;28;20123;-78
2023/03/01 13:31:30;;;;;;;5.85;3.20;;;;;;;20.68;34.48;100888.84;5091546;28;20054;-78
2023/03/01 13:33:58;;;;;;;4.70;3.60;;;;;;;20.58;34.96;100890.59;5091372;28;20052;-78
2023/03/01 13:36:28;;;;;;;4.68;3.10;;;;;;;20.33;33.02;100884.53;5090909;28;20149;-78
2023/03/01 13:39:38;;;;;;;3.88;3.25;;;;;;;19.98;34.00;100882.84;5091029;28;20058;-78
2023/03/01 13:42:32;;;;;;;4.10;3.25;;;;;;;19.61;32.72;100879.41;5091222;28;20056;-78
2023/03/01 13:45:00;;;;;;;5.00;3.10;;;;;;;19.36;34.63;100880.47;5090836;28;20058;-78
2023/03/01 13:47:27;;;;;;;4.38;3.03;;;;;;;19.08;34.89;100877.22;5088732;28;20056;-78
2023/03/01 13:50:00;;;;;;;3.60;2.80;;;;;;;18.77;33.70;100871.47;5095081;28;20040;-78
2023/03/01 13:52:43;;;;;;;5.75;2.70;;;;;;;18.47;33.40;100874.44;5100622;28;20477;-78
2023/03/01 13:55:19;;;;;;;;;;;;;;;18.31;36.90;100864.03;5110005;28;20474;-78
2023/03/01 13:57:53;;;;;;;2.83;2.53;;;;;;;18.16;35.76;100858.00;5111523;28;20383;-79
2023/03/01 14:00:37;;;;;;;5.45;2.92;;;;;;;17.94;35.33;100867.50;5110152;28;20044;-78
2023/03/01 14:03:18;;;;;;;3.80;2.88;;;;;;;17.91;36.90;100867.69;5110077;28;20079;-78
2023/03/01 14:05:57;;;;;;;3.53;2.78;;;;;;;17.83;34.88;100862.91;5110966;28;20044;-78
2023/03/01 14:08:40;;;;;;;4.65;2.90;;;;;;;17.95;37.09;100865.69;5111263;28;20062;-78
2023/03/01 14:11:26;;;;;;;4.50;2.85;;;;;;;18.04;36.91;100856.19;5111316;28;20046;-78
2023/03/01 14:14:11;;;;;;;3.58;3.03;;;;;;;18.19;37.49;100859.59;5111174;28;20491;-78
2023/03/01 14:16:53;;;;;;;3.28;2.67;;;;;;;18.34;35.71;100847.84;5110743;28;20450;-78
2023/03/01 14:19:25;;;;;;;3.72;2.53;;;;;;;18.60;36.04;100845.09;5109984;28;20052;-78
2023/03/01 14:22:04;;;;;;;4.45;2.92;;;;;;;18.92;38.30;100846.31;5111174;28;20051;-78
2023/03/01 14:24:34;;;;;;;3.65;2.60;;;;;;;19.29;37.76;100840.03;5110730;28;20069;-79
2023/03/01 14:27:01;;;;;;;3.85;2.47;;;;;;;19.70;37.66;100834.25;5110631;28;20154;-78
2023/03/01 14:29:37;;;;;;;3.95;2.65;;;;;;;20.06;34.45;100832.34;5110818;28;20059;-78
2023/03/01 14:32:21;;;;;;;3.70;2.60;;;;;;;20.44;34.94;100838.22;5111015;28;20051;-78
2023/03/01 14:34:50;;;;;;;3.45;2.47;;;;;;;20.85;36.80;100824.22;5110723;28;20139;-78
2023/03/01 14:37:29;;;;;;;3.45;2.72;;;;;;;21.20;34.47;100829.28;5110484;28;20082;-78
2023/03/01 14:39:57;;;;;;;2.53;2.33;;;;;;;21.61;36.20;100824.03;5110949;28;20133;-78
2023/03/01 14:42:28;;;;;;;4.18;2.50;;;;;;;21.95;34.08;100819.41;5110833;28;20410;-78
2023/03/01 14:44:57;;;;;;;3.45;2.50;;;;;;;22.20;34.18;100817.22;5110645;28;20116;-78
2023/03/01 14:50:16;;;;;;;3.90;2.92;;;;;;;22.50;33.42;100802.84;5026590;22;20106;-81
2023/03/01 14:52:46;;;;;;;2.40;2.10;;;;;;;22.64;32.48;100796.25;5050315;28;20170;-80
2023/03/01 14:55:37;;;;;;;3.03;2.50;;;;;;;22.73;31.18;100794.53;5049630;28;20535;-79
2023/03/01 14:58:08;;;;;;;3.90;2.67;;;;;;;22.86;32.58;100786.22;5049663;28;20045;-81
2023/03/01 15:00:35;;;;;;;3.13;2.60;;;;;;;22.93;32.94;100785.63;5049910;28;20382;-78
2023/03/01 15:03:17;;;;;;;4.43;2.63;;;;;;;22.90;31.73;100774.19;5050201;28;20049;-80
2023/03/01 15:05:44;;;;;;;3.25;2.30;;;;;;;22.94;32.11;100780.13;5049655;28;20084;-81